sensor_id;sensor_type;location;lat;lon;timestamp;P1;durP1;ratioP1;P2;durP2;ratioP2
58214;SDS011;44011;52.218;1.480;2022-08-03T00:02:24;13.30;;;3.45;;
58214;SDS011;44011;52.218;1.480;2022-08-03T00:04:50;14.77;;;3.85;;
58214;SDS011;44011;52.218;1.480;2022-08-03T00:07:15;10.07;;;3.47;;
58214;SDS011;44011;52.218;1.480;2022-08-03T00:09:41;12.02;;;3.60;;
58214;SDS011;44011;52.218;1.480;2022-08-03T00:12:06;10.52;;;3.42;;
58214;SDS011;44011;52.218;1.480;2022-08-03T00:14:32;13.90;;;4.07;;
58214;SDS011;44011;52.218;1.480;2022-08-03T00:16:58;11.45;;;3.70;;
58214;SDS011;44011;52.218;1.480;2022-08-03T00:19:23;12.32;;;3.75;;
58214;SDS011;44011;52.218;1.480;2022-08-03T00:21:49;9.85;;;3.25;;
58214;SDS011;44011;52.218;1.480;2022-08-03T00:24:14;10.57;;;3.78;;
58214;SDS011;44011;52.218;1.480;2022-08-03T00:26:40;9.23;;;3.78;;
58214;SDS011;44011;52.218;1.480;2022-08-03T00:29:05;9.27;;;3.60;;
58214;SDS011;44011;52.218;1.480;2022-08-03T00:31:30;8.52;;;3.05;;
58214;SDS011;44011;52.218;1.480;2022-08-03T00:33:56;11.55;;;3.30;;
58214;SDS011;44011;52.218;1.480;2022-08-03T00:36:21;9.75;;;3.65;;
58214;SDS011;44011;52.218;1.480;2022-08-03T00:38:47;12.82;;;3.88;;
58214;SDS011;44011;52.218;1.480;2022-08-03T00:41:12;15.15;;;3.70;;
58214;SDS011;44011;52.218;1.480;2022-08-03T00:43:38;14.02;;;3.95;;
58214;SDS011;44011;52.218;1.480;2022-08-03T00:46:03;9.13;;;3.75;;
58214;SDS011;44011;52.218;1.480;2022-08-03T00:48:29;11.63;;;4.13;;
58214;SDS011;44011;52.218;1.480;2022-08-03T00:50:54;11.85;;;3.40;;
58214;SDS011;44011;52.218;1.480;2022-08-03T00:53:20;11.27;;;3.30;;
58214;SDS011;44011;52.218;1.480;2022-08-03T00:55:45;7.88;;;4.00;;
58214;SDS011;44011;52.218;1.480;2022-08-03T00:58:11;10.48;;;3.53;;
58214;SDS011;44011;52.218;1.480;2022-08-03T01:00:38;14.48;;;3.75;;
58214;SDS011;44011;52.218;1.480;2022-08-03T01:03:05;12.57;;;3.58;;
58214;SDS011;44011;52.218;1.480;2022-08-03T01:05:39;11.05;;;4.00;;
58214;SDS011;44011;52.218;1.480;2022-08-03T01:16:36;15.38;;;3.95;;
58214;SDS011;44011;52.218;1.480;2022-08-03T01:19:23;8.88;;;3.47;;
58214;SDS011;44011;52.218;1.480;2022-08-03T01:30:47;12.80;;;3.67;;
58214;SDS011;44011;52.218;1.480;2022-08-03T01:33:24;11.95;;;3.85;;
58214;SDS011;44011;52.218;1.480;2022-08-03T01:35:56;13.55;;;3.80;;
58214;SDS011;44011;52.218;1.480;2022-08-03T01:38:25;11.30;;;3.80;;
58214;SDS011;44011;52.218;1.480;2022-08-03T01:40:53;10.63;;;3.20;;
58214;SDS011;44011;52.218;1.480;2022-08-03T01:43:20;8.13;;;3.42;;
58214;SDS011;44011;52.218;1.480;2022-08-03T01:45:51;19.05;;;4.30;;
58214;SDS011;44011;52.218;1.480;2022-08-03T01:48:19;17.35;;;4.63;;
58214;SDS011;44011;52.218;1.480;2022-08-03T01:50:45;12.32;;;4.32;;
58214;SDS011;44011;52.218;1.480;2022-08-03T01:53:12;15.32;;;3.55;;
58214;SDS011;44011;52.218;1.480;2022-08-03T01:55:38;11.05;;;3.78;;
58214;SDS011;44011;52.218;1.480;2022-08-03T01:58:04;12.88;;;3.88;;
58214;SDS011;44011;52.218;1.480;2022-08-03T02:00:32;10.65;;;3.70;;
58214;SDS011;44011;52.218;1.480;2022-08-03T02:02:59;14.57;;;4.05;;
58214;SDS011;44011;52.218;1.480;2022-08-03T02:05:25;10.10;;;4.47;;
58214;SDS011;44011;52.218;1.480;2022-08-03T02:07:51;10.57;;;3.60;;
58214;SDS011;44011;52.218;1.480;2022-08-03T02:10:17;11.77;;;3.28;;
58214;SDS011;44011;52.218;1.480;2022-08-03T02:12:44;12.45;;;4.10;;
58214;SDS011;44011;52.218;1.480;2022-08-03T02:15:10;11.85;;;4.20;;
58214;SDS011;44011;52.218;1.480;2022-08-03T02:17:36;12.30;;;3.95;;
58214;SDS011;44011;52.218;1.480;2022-08-03T02:20:02;14.13;;;3.70;;
58214;SDS011;44011;52.218;1.480;2022-08-03T02:22:29;11.68;;;5.03;;
58214;SDS011;44011;52.218;1.480;2022-08-03T02:24:55;13.20;;;4.13;;
58214;SDS011;44011;52.218;1.480;2022-08-03T02:27:25;15.80;;;4.05;;
58214;SDS011;44011;52.218;1.480;2022-08-03T02:29:55;13.80;;;3.83;;
58214;SDS011;44011;52.218;1.480;2022-08-03T02:32:28;12.98;;;3.90;;
58214;SDS011;44011;52.218;1.480;2022-08-03T02:34:56;10.90;;;4.13;;
58214;SDS011;44011;52.218;1.480;2022-08-03T02:37:23;14.02;;;3.47;;
58214;SDS011;44011;52.218;1.480;2022-08-03T02:39:50;11.63;;;3.58;;
58214;SDS011;44011;52.218;1.480;2022-08-03T02:42:18;15.10;;;3.60;;
58214;SDS011;44011;52.218;1.480;2022-08-03T02:44:45;10.98;;;4.07;;
58214;SDS011;44011;52.218;1.480;2022-08-03T02:47:12;11.13;;;3.63;;
58214;SDS011;44011;52.218;1.480;2022-08-03T02:49:40;11.73;;;3.67;;
58214;SDS011;44011;52.218;1.480;2022-08-03T02:52:08;16.17;;;4.05;;
58214;SDS011;44011;52.218;1.480;2022-08-03T02:54:34;14.73;;;3.90;;
58214;SDS011;44011;52.218;1.480;2022-08-03T02:57:00;10.25;;;4.30;;
58214;SDS011;44011;52.218;1.480;2022-08-03T02:59:26;10.27;;;3.33;;
58214;SDS011;44011;52.218;1.480;2022-08-03T03:01:55;11.98;;;3.90;;
58214;SDS011;44011;52.218;1.480;2022-08-03T03:04:21;13.55;;;3.65;;
58214;SDS011;44011;52.218;1.480;2022-08-03T03:06:47;10.13;;;4.10;;
58214;SDS011;44011;52.218;1.480;2022-08-03T03:09:13;11.73;;;3.72;;
58214;SDS011;44011;52.218;1.480;2022-08-03T03:11:38;10.77;;;3.78;;
58214;SDS011;44011;52.218;1.480;2022-08-03T03:14:05;14.05;;;3.90;;
58214;SDS011;44011;52.218;1.480;2022-08-03T03:16:31;12.25;;;3.55;;
58214;SDS011;44011;52.218;1.480;2022-08-03T03:18:57;12.10;;;4.32;;
58214;SDS011;44011;52.218;1.480;2022-08-03T03:21:23;11.13;;;4.10;;
58214;SDS011;44011;52.218;1.480;2022-08-03T03:23:49;12.50;;;4.10;;
58214;SDS011;44011;52.218;1.480;2022-08-03T03:26:15;11.50;;;3.45;;
58214;SDS011;44011;52.218;1.480;2022-08-03T03:28:41;13.02;;;3.97;;
58214;SDS011;44011;52.218;1.480;2022-08-03T03:31:07;14.15;;;3.53;;
58214;SDS011;44011;52.218;1.480;2022-08-03T03:33:33;17.85;;;4.20;;
58214;SDS011;44011;52.218;1.480;2022-08-03T03:35:59;12.95;;;4.03;;
58214;SDS011;44011;52.218;1.480;2022-08-03T03:38:25;8.40;;;3.22;;
58214;SDS011;44011;52.218;1.480;2022-08-03T03:40:51;9.68;;;3.70;;
58214;SDS011;44011;52.218;1.480;2022-08-03T03:43:17;8.25;;;3.60;;
58214;SDS011;44011;52.218;1.480;2022-08-03T03:45:42;16.65;;;4.25;;
58214;SDS011;44011;52.218;1.480;2022-08-03T03:48:08;16.88;;;4.75;;
58214;SDS011;44011;52.218;1.480;2022-08-03T03:50:34;13.95;;;3.47;;
58214;SDS011;44011;52.218;1.480;2022-08-03T03:53:02;8.68;;;3.90;;
58214;SDS011;44011;52.218;1.480;2022-08-03T03:55:27;11.57;;;3.58;;
58214;SDS011;44011;52.218;1.480;2022-08-03T03:57:53;10.88;;;3.45;;
58214;SDS011;44011;52.218;1.480;2022-08-03T04:00:19;12.95;;;3.70;;
58214;SDS011;44011;52.218;1.480;2022-08-03T04:02:44;11.20;;;3.35;;
58214;SDS011;44011;52.218;1.480;2022-08-03T04:05:10;13.88;;;5.53;;
58214;SDS011;44011;52.218;1.480;2022-08-03T04:07:57;11.23;;;3.70;;
58214;SDS011;44011;52.218;1.480;2022-08-03T04:14:01;14.80;;;3.55;;
58214;SDS011;44011;52.218;1.480;2022-08-03T04:16:31;11.05;;;3.40;;
58214;SDS011;44011;52.218;1.480;2022-08-03T04:18:59;11.32;;;3.72;;
58214;SDS011;44011;52.218;1.480;2022-08-03T04:21:27;8.18;;;3.50;;
58214;SDS011;44011;52.218;1.480;2022-08-03T04:23:55;12.07;;;3.78;;
58214;SDS011;44011;52.218;1.480;2022-08-03T04:26:23;12.00;;;3.90;;
58214;SDS011;44011;52.218;1.480;2022-08-03T04:28:51;11.80;;;4.18;;
58214;SDS011;44011;52.218;1.480;2022-08-03T04:31:19;9.45;;;4.15;;
58214;SDS011;44011;52.218;1.480;2022-08-03T04:33:46;12.07;;;4.18;;
58214;SDS011;44011;52.218;1.480;2022-08-03T04:36:14;16.80;;;4.32;;
58214;SDS011;44011;52.218;1.480;2022-08-03T04:38:43;10.23;;;3.72;;
58214;SDS011;44011;52.218;1.480;2022-08-03T04:41:26;13.20;;;5.13;;
58214;SDS011;44011;52.218;1.480;2022-08-03T04:43:54;10.93;;;4.10;;
58214;SDS011;44011;52.218;1.480;2022-08-03T04:46:21;11.90;;;4.75;;
58214;SDS011;44011;52.218;1.480;2022-08-03T04:48:48;9.13;;;4.07;;
58214;SDS011;44011;52.218;1.480;2022-08-03T04:51:13;13.27;;;4.15;;
58214;SDS011;44011;52.218;1.480;2022-08-03T04:53:39;9.73;;;3.80;;
58214;SDS011;44011;52.218;1.480;2022-08-03T04:56:05;10.57;;;4.20;;
58214;SDS011;44011;52.218;1.480;2022-08-03T04:58:31;11.73;;;5.53;;
58214;SDS011;44011;52.218;1.480;2022-08-03T05:00:57;16.83;;;4.75;;
58214;SDS011;44011;52.218;1.480;2022-08-03T05:03:22;10.50;;;4.47;;
58214;SDS011;44011;52.218;1.480;2022-08-03T05:05:48;14.68;;;4.88;;
58214;SDS011;44011;52.218;1.480;2022-08-03T05:08:14;10.43;;;4.38;;
58214;SDS011;44011;52.218;1.480;2022-08-03T05:10:39;11.38;;;5.00;;
58214;SDS011;44011;52.218;1.480;2022-08-03T05:13:05;12.40;;;4.28;;
58214;SDS011;44011;52.218;1.480;2022-08-03T05:15:30;13.40;;;4.35;;
58214;SDS011;44011;52.218;1.480;2022-08-03T05:17:55;10.82;;;4.90;;
58214;SDS011;44011;52.218;1.480;2022-08-03T05:20:21;16.25;;;4.80;;
58214;SDS011;44011;52.218;1.480;2022-08-03T05:22:46;11.77;;;4.38;;
58214;SDS011;44011;52.218;1.480;2022-08-03T05:25:12;11.77;;;4.20;;
58214;SDS011;44011;52.218;1.480;2022-08-03T05:27:37;11.85;;;4.63;;
58214;SDS011;44011;52.218;1.480;2022-08-03T05:30:03;15.18;;;4.90;;
58214;SDS011;44011;52.218;1.480;2022-08-03T05:32:29;10.40;;;4.60;;
58214;SDS011;44011;52.218;1.480;2022-08-03T05:34:54;9.07;;;4.20;;
58214;SDS011;44011;52.218;1.480;2022-08-03T05:37:20;11.63;;;4.30;;
58214;SDS011;44011;52.218;1.480;2022-08-03T05:39:45;10.18;;;4.43;;
58214;SDS011;44011;52.218;1.480;2022-08-03T05:42:12;11.13;;;4.22;;
58214;SDS011;44011;52.218;1.480;2022-08-03T05:44:39;13.48;;;4.75;;
58214;SDS011;44011;52.218;1.480;2022-08-03T05:47:06;9.43;;;3.60;;
58214;SDS011;44011;52.218;1.480;2022-08-03T05:49:32;8.68;;;4.03;;
58214;SDS011;44011;52.218;1.480;2022-08-03T05:51:58;7.82;;;3.72;;
58214;SDS011;44011;52.218;1.480;2022-08-03T05:54:23;8.05;;;3.47;;
58214;SDS011;44011;52.218;1.480;2022-08-03T05:56:48;7.75;;;3.60;;
58214;SDS011;44011;52.218;1.480;2022-08-03T05:59:14;9.38;;;3.60;;
58214;SDS011;44011;52.218;1.480;2022-08-03T06:01:39;8.25;;;3.33;;
58214;SDS011;44011;52.218;1.480;2022-08-03T06:04:05;7.00;;;3.40;;
58214;SDS011;44011;52.218;1.480;2022-08-03T06:06:30;9.05;;;3.70;;
58214;SDS011;44011;52.218;1.480;2022-08-03T06:08:56;7.75;;;3.90;;
58214;SDS011;44011;52.218;1.480;2022-08-03T06:11:21;9.60;;;3.15;;
58214;SDS011;44011;52.218;1.480;2022-08-03T06:13:47;7.97;;;3.22;;
58214;SDS011;44011;52.218;1.480;2022-08-03T06:16:12;9.82;;;3.00;;
58214;SDS011;44011;52.218;1.480;2022-08-03T06:18:38;8.85;;;2.80;;
58214;SDS011;44011;52.218;1.480;2022-08-03T06:21:04;5.55;;;3.30;;
58214;SDS011;44011;52.218;1.480;2022-08-03T06:23:30;9.73;;;4.18;;
58214;SDS011;44011;52.218;1.480;2022-08-03T06:25:55;8.25;;;3.17;;
58214;SDS011;44011;52.218;1.480;2022-08-03T06:28:20;6.70;;;3.47;;
58214;SDS011;44011;52.218;1.480;2022-08-03T06:30:46;7.80;;;3.40;;
58214;SDS011;44011;52.218;1.480;2022-08-03T06:33:11;6.15;;;3.03;;
58214;SDS011;44011;52.218;1.480;2022-08-03T06:35:37;7.43;;;3.35;;
58214;SDS011;44011;52.218;1.480;2022-08-03T06:38:02;7.55;;;2.65;;
58214;SDS011;44011;52.218;1.480;2022-08-03T06:40:28;7.78;;;2.45;;
58214;SDS011;44011;52.218;1.480;2022-08-03T06:42:58;5.60;;;2.33;;
58214;SDS011;44011;52.218;1.480;2022-08-03T06:45:26;5.63;;;2.17;;
58214;SDS011;44011;52.218;1.480;2022-08-03T06:48:02;6.00;;;2.58;;
58214;SDS011;44011;52.218;1.480;2022-08-03T06:50:32;9.80;;;2.10;;
58214;SDS011;44011;52.218;1.480;2022-08-03T06:52:58;11.57;;;2.53;;
58214;SDS011;44011;52.218;1.480;2022-08-03T06:55:24;4.20;;;2.10;;
58214;SDS011;44011;52.218;1.480;2022-08-03T06:57:50;5.55;;;2.58;;
58214;SDS011;44011;52.218;1.480;2022-08-03T07:00:16;3.50;;;2.47;;
58214;SDS011;44011;52.218;1.480;2022-08-03T07:02:41;5.75;;;2.28;;
58214;SDS011;44011;52.218;1.480;2022-08-03T07:05:08;5.53;;;2.45;;
58214;SDS011;44011;52.218;1.480;2022-08-03T07:07:34;6.30;;;2.08;;
58214;SDS011;44011;52.218;1.480;2022-08-03T07:09:59;8.13;;;2.13;;
58214;SDS011;44011;52.218;1.480;2022-08-03T07:12:25;7.18;;;2.00;;
58214;SDS011;44011;52.218;1.480;2022-08-03T07:14:51;4.95;;;2.30;;
58214;SDS011;44011;52.218;1.480;2022-08-03T07:17:17;4.97;;;2.13;;
58214;SDS011;44011;52.218;1.480;2022-08-03T07:19:42;3.20;;;1.77;;
58214;SDS011;44011;52.218;1.480;2022-08-03T07:22:08;3.35;;;1.85;;
58214;SDS011;44011;52.218;1.480;2022-08-03T07:24:35;4.63;;;2.00;;
58214;SDS011;44011;52.218;1.480;2022-08-03T07:27:01;6.45;;;1.40;;
58214;SDS011;44011;52.218;1.480;2022-08-03T07:29:26;5.25;;;1.90;;
58214;SDS011;44011;52.218;1.480;2022-08-03T07:31:52;2.35;;;1.65;;
58214;SDS011;44011;52.218;1.480;2022-08-03T07:34:17;6.82;;;2.03;;
58214;SDS011;44011;52.218;1.480;2022-08-03T07:36:43;4.68;;;1.73;;
58214;SDS011;44011;52.218;1.480;2022-08-03T07:39:08;3.55;;;1.73;;
58214;SDS011;44011;52.218;1.480;2022-08-03T07:41:34;3.78;;;1.75;;
58214;SDS011;44011;52.218;1.480;2022-08-03T07:43:59;5.75;;;1.70;;
58214;SDS011;44011;52.218;1.480;2022-08-03T07:46:24;5.85;;;1.80;;
58214;SDS011;44011;52.218;1.480;2022-08-03T07:48:50;7.45;;;1.70;;
58214;SDS011;44011;52.218;1.480;2022-08-03T07:51:16;6.13;;;1.83;;
58214;SDS011;44011;52.218;1.480;2022-08-03T07:53:42;5.38;;;1.45;;
58214;SDS011;44011;52.218;1.480;2022-08-03T07:56:07;5.53;;;1.73;;
58214;SDS011;44011;52.218;1.480;2022-08-03T07:58:34;3.80;;;1.73;;
58214;SDS011;44011;52.218;1.480;2022-08-03T08:01:00;2.72;;;1.55;;
58214;SDS011;44011;52.218;1.480;2022-08-03T08:03:25;4.10;;;2.38;;
58214;SDS011;44011;52.218;1.480;2022-08-03T08:05:51;1.42;;;1.10;;
58214;SDS011;44011;52.218;1.480;2022-08-03T08:08:17;7.78;;;1.55;;
58214;SDS011;44011;52.218;1.480;2022-08-03T08:10:44;2.85;;;1.55;;
58214;SDS011;44011;52.218;1.480;2022-08-03T08:13:10;4.68;;;1.88;;
58214;SDS011;44011;52.218;1.480;2022-08-03T08:15:35;4.95;;;1.92;;
58214;SDS011;44011;52.218;1.480;2022-08-03T08:18:01;3.20;;;1.65;;
58214;SDS011;44011;52.218;1.480;2022-08-03T08:20:31;3.25;;;1.77;;
58214;SDS011;44011;52.218;1.480;2022-08-03T08:23:06;5.07;;;1.63;;
58214;SDS011;44011;52.218;1.480;2022-08-03T08:25:32;8.10;;;1.85;;
58214;SDS011;44011;52.218;1.480;2022-08-03T08:27:58;2.97;;;1.42;;
58214;SDS011;44011;52.218;1.480;2022-08-03T08:30:29;2.85;;;1.55;;
58214;SDS011;44011;52.218;1.480;2022-08-03T08:32:55;4.43;;;2.10;;
58214;SDS011;44011;52.218;1.480;2022-08-03T08:35:22;10.30;;;2.80;;
58214;SDS011;44011;52.218;1.480;2022-08-03T08:37:47;4.13;;;1.40;;
58214;SDS011;44011;52.218;1.480;2022-08-03T08:40:13;4.55;;;1.67;;
58214;SDS011;44011;52.218;1.480;2022-08-03T08:42:39;3.75;;;1.63;;
58214;SDS011;44011;52.218;1.480;2022-08-03T08:45:06;4.53;;;1.35;;
58214;SDS011;44011;52.218;1.480;2022-08-03T08:47:33;3.88;;;1.27;;
58214;SDS011;44011;52.218;1.480;2022-08-03T08:50:02;5.32;;;1.60;;
58214;SDS011;44011;52.218;1.480;2022-08-03T08:52:28;5.82;;;1.75;;
58214;SDS011;44011;52.218;1.480;2022-08-03T08:54:55;6.82;;;1.83;;
58214;SDS011;44011;52.218;1.480;2022-08-03T08:57:27;2.92;;;1.92;;
58214;SDS011;44011;52.218;1.480;2022-08-03T08:59:54;3.90;;;1.42;;
58214;SDS011;44011;52.218;1.480;2022-08-03T09:02:21;10.45;;;1.67;;
58214;SDS011;44011;52.218;1.480;2022-08-03T09:04:50;4.18;;;1.33;;
58214;SDS011;44011;52.218;1.480;2022-08-03T09:07:16;13.38;;;2.17;;
58214;SDS011;44011;52.218;1.480;2022-08-03T09:09:42;2.58;;;1.52;;
58214;SDS011;44011;52.218;1.480;2022-08-03T09:12:07;4.07;;;1.55;;
58214;SDS011;44011;52.218;1.480;2022-08-03T09:14:33;5.28;;;1.63;;
58214;SDS011;44011;52.218;1.480;2022-08-03T09:16:59;3.97;;;1.35;;
58214;SDS011;44011;52.218;1.480;2022-08-03T09:19:26;4.07;;;1.23;;
58214;SDS011;44011;52.218;1.480;2022-08-03T09:24:32;3.40;;;1.73;;
58214;SDS011;44011;52.218;1.480;2022-08-03T09:26:57;2.05;;;1.27;;
58214;SDS011;44011;52.218;1.480;2022-08-03T09:29:22;2.95;;;1.20;;
58214;SDS011;44011;52.218;1.480;2022-08-03T09:31:49;3.58;;;1.30;;
58214;SDS011;44011;52.218;1.480;2022-08-03T09:34:25;5.35;;;1.65;;
58214;SDS011;44011;52.218;1.480;2022-08-03T09:36:52;3.60;;;1.50;;
58214;SDS011;44011;52.218;1.480;2022-08-03T09:39:21;4.00;;;1.35;;
58214;SDS011;44011;52.218;1.480;2022-08-03T09:42:05;2.60;;;1.33;;
58214;SDS011;44011;52.218;1.480;2022-08-03T09:44:42;3.33;;;1.40;;
58214;SDS011;44011;52.218;1.480;2022-08-03T09:47:09;3.25;;;1.30;;
58214;SDS011;44011;52.218;1.480;2022-08-03T09:49:36;4.28;;;1.40;;
58214;SDS011;44011;52.218;1.480;2022-08-03T09:54:39;2.83;;;1.50;;
58214;SDS011;44011;52.218;1.480;2022-08-03T09:57:05;1.25;;;1.15;;
58214;SDS011;44011;52.218;1.480;2022-08-03T09:59:31;1.65;;;1.17;;
58214;SDS011;44011;52.218;1.480;2022-08-03T10:01:57;1.98;;;1.40;;
58214;SDS011;44011;52.218;1.480;2022-08-03T10:04:24;3.53;;;1.20;;
58214;SDS011;44011;52.218;1.480;2022-08-03T10:07:06;3.47;;;1.35;;
58214;SDS011;44011;52.218;1.480;2022-08-03T10:09:33;2.92;;;1.25;;
58214;SDS011;44011;52.218;1.480;2022-08-03T10:12:09;4.40;;;1.80;;
58214;SDS011;44011;52.218;1.480;2022-08-03T10:14:37;5.32;;;2.05;;
58214;SDS011;44011;52.218;1.480;2022-08-03T10:17:03;4.93;;;2.05;;
58214;SDS011;44011;52.218;1.480;2022-08-03T10:19:29;3.15;;;2.33;;
58214;SDS011;44011;52.218;1.480;2022-08-03T10:21:55;3.00;;;1.40;;
58214;SDS011;44011;52.218;1.480;2022-08-03T10:24:28;3.20;;;1.70;;
58214;SDS011;44011;52.218;1.480;2022-08-03T10:26:56;2.35;;;1.30;;
58214;SDS011;44011;52.218;1.480;2022-08-03T10:29:36;2.30;;;1.33;;
58214;SDS011;44011;52.218;1.480;2022-08-03T10:32:03;2.13;;;1.75;;
58214;SDS011;44011;52.218;1.480;2022-08-03T10:34:36;2.28;;;1.17;;
58214;SDS011;44011;52.218;1.480;2022-08-03T10:37:08;1.77;;;1.25;;
58214;SDS011;44011;52.218;1.480;2022-08-03T10:39:35;2.50;;;1.10;;
58214;SDS011;44011;52.218;1.480;2022-08-03T10:42:02;3.08;;;1.55;;
58214;SDS011;44011;52.218;1.480;2022-08-03T10:44:30;3.55;;;1.25;;
58214;SDS011;44011;52.218;1.480;2022-08-03T10:46:57;2.80;;;1.10;;
58214;SDS011;44011;52.218;1.480;2022-08-03T10:49:23;2.90;;;1.38;;
58214;SDS011;44011;52.218;1.480;2022-08-03T10:51:48;2.33;;;1.05;;
58214;SDS011;44011;52.218;1.480;2022-08-03T10:57:55;3.45;;;1.33;;
58214;SDS011;44011;52.218;1.480;2022-08-03T11:00:22;2.28;;;1.30;;
58214;SDS011;44011;52.218;1.480;2022-08-03T11:05:40;2.03;;;1.40;;
58214;SDS011;44011;52.218;1.480;2022-08-03T11:10:46;2.53;;;1.20;;
58214;SDS011;44011;52.218;1.480;2022-08-03T11:13:16;4.07;;;1.33;;
58214;SDS011;44011;52.218;1.480;2022-08-03T11:15:44;1.45;;;1.35;;
58214;SDS011;44011;52.218;1.480;2022-08-03T11:18:13;1.52;;;1.23;;
58214;SDS011;44011;52.218;1.480;2022-08-03T11:20:43;2.53;;;1.40;;
58214;SDS011;44011;52.218;1.480;2022-08-03T11:23:09;2.03;;;1.38;;
58214;SDS011;44011;52.218;1.480;2022-08-03T11:26:07;2.33;;;1.60;;
58214;SDS011;44011;52.218;1.480;2022-08-03T11:28:42;2.22;;;2.03;;
58214;SDS011;44011;52.218;1.480;2022-08-03T11:39:44;3.22;;;2.20;;
58214;SDS011;44011;52.218;1.480;2022-08-03T11:44:55;2.58;;;2.08;;
58214;SDS011;44011;52.218;1.480;2022-08-03T11:47:23;2.83;;;2.35;;
58214;SDS011;44011;52.218;1.480;2022-08-03T11:49:52;5.07;;;2.15;;
58214;SDS011;44011;52.218;1.480;2022-08-03T11:52:19;3.45;;;2.20;;
58214;SDS011;44011;52.218;1.480;2022-08-03T11:54:45;5.60;;;2.25;;
58214;SDS011;44011;52.218;1.480;2022-08-03T11:57:27;2.63;;;2.15;;
58214;SDS011;44011;52.218;1.480;2022-08-03T11:59:56;4.78;;;1.75;;
58214;SDS011;44011;52.218;1.480;2022-08-03T12:02:21;3.70;;;2.20;;
58214;SDS011;44011;52.218;1.480;2022-08-03T12:04:56;2.30;;;1.90;;
58214;SDS011;44011;52.218;1.480;2022-08-03T12:07:24;4.75;;;1.60;;
58214;SDS011;44011;52.218;1.480;2022-08-03T12:10:07;2.70;;;1.42;;
58214;SDS011;44011;52.218;1.480;2022-08-03T12:12:34;2.83;;;1.40;;
58214;SDS011;44011;52.218;1.480;2022-08-03T12:15:01;2.10;;;1.58;;
58214;SDS011;44011;52.218;1.480;2022-08-03T12:17:37;3.33;;;1.80;;
58214;SDS011;44011;52.218;1.480;2022-08-03T12:20:04;1.90;;;1.70;;
58214;SDS011;44011;52.218;1.480;2022-08-03T12:22:38;2.80;;;1.85;;
58214;SDS011;44011;52.218;1.480;2022-08-03T12:25:07;1.80;;;1.45;;
58214;SDS011;44011;52.218;1.480;2022-08-03T12:27:33;2.10;;;1.52;;
58214;SDS011;44011;52.218;1.480;2022-08-03T12:29:59;1.55;;;1.25;;
58214;SDS011;44011;52.218;1.480;2022-08-03T12:32:28;1.70;;;1.25;;
58214;SDS011;44011;52.218;1.480;2022-08-03T12:34:55;2.40;;;1.27;;
58214;SDS011;44011;52.218;1.480;2022-08-03T12:37:24;1.52;;;1.30;;
58214;SDS011;44011;52.218;1.480;2022-08-03T12:39:51;1.88;;;1.10;;
58214;SDS011;44011;52.218;1.480;2022-08-03T12:42:18;1.75;;;1.38;;
58214;SDS011;44011;52.218;1.480;2022-08-03T12:44:44;2.83;;;1.20;;
58214;SDS011;44011;52.218;1.480;2022-08-03T12:47:10;1.70;;;1.60;;
58214;SDS011;44011;52.218;1.480;2022-08-03T12:49:49;1.60;;;1.30;;
58214;SDS011;44011;52.218;1.480;2022-08-03T12:52:16;1.60;;;1.50;;
58214;SDS011;44011;52.218;1.480;2022-08-03T12:54:52;1.88;;;1.30;;
58214;SDS011;44011;52.218;1.480;2022-08-03T12:57:21;1.98;;;1.52;;
58214;SDS011;44011;52.218;1.480;2022-08-03T12:59:47;2.28;;;1.77;;
58214;SDS011;44011;52.218;1.480;2022-08-03T13:02:23;3.47;;;1.50;;
58214;SDS011;44011;52.218;1.480;2022-08-03T13:04:50;1.50;;;1.40;;
58214;SDS011;44011;52.218;1.480;2022-08-03T13:07:16;2.13;;;1.67;;
58214;SDS011;44011;52.218;1.480;2022-08-03T13:12:13;1.30;;;1.20;;
58214;SDS011;44011;52.218;1.480;2022-08-03T13:14:40;2.00;;;1.40;;
58214;SDS011;44011;52.218;1.480;2022-08-03T13:17:06;1.42;;;1.30;;
58214;SDS011;44011;52.218;1.480;2022-08-03T13:19:32;1.67;;;1.33;;
58214;SDS011;44011;52.218;1.480;2022-08-03T13:21:58;1.30;;;1.20;;
58214;SDS011;44011;52.218;1.480;2022-08-03T13:24:24;1.63;;;1.13;;
58214;SDS011;44011;52.218;1.480;2022-08-03T13:26:50;1.80;;;1.50;;
58214;SDS011;44011;52.218;1.480;2022-08-03T13:29:15;3.75;;;1.50;;
58214;SDS011;44011;52.218;1.480;2022-08-03T13:31:41;1.30;;;1.20;;
58214;SDS011;44011;52.218;1.480;2022-08-03T13:34:07;1.08;;;0.98;;
58214;SDS011;44011;52.218;1.480;2022-08-03T13:36:32;1.90;;;1.10;;
58214;SDS011;44011;52.218;1.480;2022-08-03T13:38:58;1.05;;;0.95;;
58214;SDS011;44011;52.218;1.480;2022-08-03T13:41:23;3.65;;;1.20;;
58214;SDS011;44011;52.218;1.480;2022-08-03T13:43:48;1.65;;;0.82;;
58214;SDS011;44011;52.218;1.480;2022-08-03T13:46:14;2.25;;;0.85;;
58214;SDS011;44011;52.218;1.480;2022-08-03T13:48:39;3.10;;;1.35;;
58214;SDS011;44011;52.218;1.480;2022-08-03T13:51:05;3.63;;;1.20;;
58214;SDS011;44011;52.218;1.480;2022-08-03T13:53:30;2.50;;;1.02;;
58214;SDS011;44011;52.218;1.480;2022-08-03T13:55:56;4.85;;;1.45;;
58214;SDS011;44011;52.218;1.480;2022-08-03T13:58:21;4.82;;;1.48;;
58214;SDS011;44011;52.218;1.480;2022-08-03T14:00:47;4.25;;;1.63;;
58214;SDS011;44011;52.218;1.480;2022-08-03T14:03:13;2.90;;;1.20;;
58214;SDS011;44011;52.218;1.480;2022-08-03T14:05:38;5.82;;;1.60;;
58214;SDS011;44011;52.218;1.480;2022-08-03T14:08:04;6.85;;;1.67;;
58214;SDS011;44011;52.218;1.480;2022-08-03T14:10:31;4.25;;;1.38;;
58214;SDS011;44011;52.218;1.480;2022-08-03T14:12:58;2.83;;;1.27;;
58214;SDS011;44011;52.218;1.480;2022-08-03T14:15:24;7.22;;;1.67;;
58214;SDS011;44011;52.218;1.480;2022-08-03T14:17:50;4.75;;;1.77;;
58214;SDS011;44011;52.218;1.480;2022-08-03T14:20:16;5.53;;;1.42;;
58214;SDS011;44011;52.218;1.480;2022-08-03T14:22:41;4.20;;;1.38;;
58214;SDS011;44011;52.218;1.480;2022-08-03T14:25:07;7.53;;;1.67;;
58214;SDS011;44011;52.218;1.480;2022-08-03T14:27:32;4.60;;;1.30;;
58214;SDS011;44011;52.218;1.480;2022-08-03T14:29:57;4.78;;;1.58;;
58214;SDS011;44011;52.218;1.480;2022-08-03T14:32:25;5.65;;;1.70;;
58214;SDS011;44011;52.218;1.480;2022-08-03T14:34:51;5.72;;;1.67;;
58214;SDS011;44011;52.218;1.480;2022-08-03T14:37:17;4.57;;;1.73;;
58214;SDS011;44011;52.218;1.480;2022-08-03T14:39:42;5.95;;;1.70;;
58214;SDS011;44011;52.218;1.480;2022-08-03T14:42:07;7.68;;;1.58;;
58214;SDS011;44011;52.218;1.480;2022-08-03T14:44:33;2.80;;;1.52;;
58214;SDS011;44011;52.218;1.480;2022-08-03T14:46:58;5.10;;;1.50;;
58214;SDS011;44011;52.218;1.480;2022-08-03T14:49:24;7.03;;;1.77;;
58214;SDS011;44011;52.218;1.480;2022-08-03T14:51:50;6.97;;;2.35;;
58214;SDS011;44011;52.218;1.480;2022-08-03T14:54:15;6.93;;;1.77;;
58214;SDS011;44011;52.218;1.480;2022-08-03T14:56:41;6.07;;;2.25;;
58214;SDS011;44011;52.218;1.480;2022-08-03T14:59:06;7.45;;;1.95;;
58214;SDS011;44011;52.218;1.480;2022-08-03T15:01:31;7.72;;;2.35;;
58214;SDS011;44011;52.218;1.480;2022-08-03T15:03:57;9.57;;;2.50;;
58214;SDS011;44011;52.218;1.480;2022-08-03T15:06:22;11.80;;;2.45;;
58214;SDS011;44011;52.218;1.480;2022-08-03T15:08:48;6.03;;;1.98;;
58214;SDS011;44011;52.218;1.480;2022-08-03T15:11:14;10.00;;;2.38;;
58214;SDS011;44011;52.218;1.480;2022-08-03T15:13:39;9.13;;;2.45;;
58214;SDS011;44011;52.218;1.480;2022-08-03T15:16:04;9.85;;;2.90;;
58214;SDS011;44011;52.218;1.480;2022-08-03T15:18:30;6.28;;;2.03;;
58214;SDS011;44011;52.218;1.480;2022-08-03T15:20:55;6.57;;;2.47;;
58214;SDS011;44011;52.218;1.480;2022-08-03T15:23:21;3.78;;;1.63;;
58214;SDS011;44011;52.218;1.480;2022-08-03T15:25:46;9.82;;;1.85;;
58214;SDS011;44011;52.218;1.480;2022-08-03T15:28:12;4.43;;;2.05;;
58214;SDS011;44011;52.218;1.480;2022-08-03T15:30:38;7.68;;;2.40;;
58214;SDS011;44011;52.218;1.480;2022-08-03T15:33:03;5.95;;;2.33;;